sensor_id;sensor_type;location;lat;lon;timestamp;P1;durP1;ratioP1;P2;durP2;ratioP2
5827;SDS011;42583;50.240;8.444;2024-03-22T00:05:01;33.55;;;12.18;;
5827;SDS011;42583;50.240;8.444;2024-03-22T00:20:01;34.88;;;13.00;;
5827;SDS011;42583;50.240;8.444;2024-03-22T00:35:02;34.30;;;14.07;;
5827;SDS011;42583;50.240;8.444;2024-03-22T00:50:03;32.47;;;13.32;;
5827;SDS011;42583;50.240;8.444;2024-03-22T01:05:05;33.67;;;13.73;;
5827;SDS011;42583;50.240;8.444;2024-03-22T01:20:05;37.67;;;12.45;;
5827;SDS011;42583;50.240;8.444;2024-03-22T01:35:06;36.17;;;13.55;;
5827;SDS011;42583;50.240;8.444;2024-03-22T01:50:08;33.35;;;12.48;;
5827;SDS011;42583;50.240;8.444;2024-03-22T02:05:12;26.27;;;10.40;;
5827;SDS011;42583;50.240;8.444;2024-03-22T02:20:19;30.23;;;11.25;;
5827;SDS011;42583;50.240;8.444;2024-03-22T02:35:19;30.95;;;11.38;;
5827;SDS011;42583;50.240;8.444;2024-03-22T02:50:20;29.95;;;9.70;;
5827;SDS011;42583;50.240;8.444;2024-03-22T03:05:21;24.10;;;8.57;;
5827;SDS011;42583;50.240;8.444;2024-03-22T03:20:23;17.30;;;7.30;;
5827;SDS011;42583;50.240;8.444;2024-03-22T03:35:25;18.98;;;6.82;;
5827;SDS011;42583;50.240;8.444;2024-03-22T03:50:27;15.88;;;5.88;;
5827;SDS011;42583;50.240;8.444;2024-03-22T04:05:27;14.50;;;4.68;;
5827;SDS011;42583;50.240;8.444;2024-03-22T04:20:28;9.95;;;4.00;;
5827;SDS011;42583;50.240;8.444;2024-03-22T04:35:29;9.48;;;3.83;;
5827;SDS011;42583;50.240;8.444;2024-03-22T04:50:29;10.35;;;3.50;;
5827;SDS011;42583;50.240;8.444;2024-03-22T05:05:30;4.57;;;2.40;;
5827;SDS011;42583;50.240;8.444;2024-03-22T05:20:31;7.18;;;2.85;;
5827;SDS011;42583;50.240;8.444;2024-03-22T05:35:31;7.43;;;3.10;;
5827;SDS011;42583;50.240;8.444;2024-03-22T05:50:32;7.38;;;3.08;;
5827;SDS011;42583;50.240;8.444;2024-03-22T06:05:33;6.32;;;2.67;;
5827;SDS011;42583;50.240;8.444;2024-03-22T06:20:38;4.78;;;2.30;;
5827;SDS011;42583;50.240;8.444;2024-03-22T06:35:39;5.43;;;2.40;;
5827;SDS011;42583;50.240;8.444;2024-03-22T06:50:43;5.00;;;2.38;;
5827;SDS011;42583;50.240;8.444;2024-03-22T07:05:44;4.15;;;2.40;;
5827;SDS011;42583;50.240;8.444;2024-03-22T07:20:46;4.82;;;2.40;;
5827;SDS011;42583;50.240;8.444;2024-03-22T07:35:48;5.45;;;2.83;;
5827;SDS011;42583;50.240;8.444;2024-03-22T07:50:55;9.27;;;4.82;;
5827;SDS011;42583;50.240;8.444;2024-03-22T08:05:56;13.43;;;5.88;;
5827;SDS011;42583;50.240;8.444;2024-03-22T08:20:57;12.30;;;5.97;;
5827;SDS011;42583;50.240;8.444;2024-03-22T08:35:58;12.50;;;5.65;;
5827;SDS011;42583;50.240;8.444;2024-03-22T08:51:00;8.77;;;4.40;;
5827;SDS011;42583;50.240;8.444;2024-03-22T09:06:02;10.55;;;4.93;;
5827;SDS011;42583;50.240;8.444;2024-03-22T09:21:04;12.75;;;6.35;;
5827;SDS011;42583;50.240;8.444;2024-03-22T09:36:04;14.45;;;7.35;;
5827;SDS011;42583;50.240;8.444;2024-03-22T09:51:05;14.55;;;7.93;;
5827;SDS011;42583;50.240;8.444;2024-03-22T10:06:06;16.38;;;7.72;;
5827;SDS011;42583;50.240;8.444;2024-03-22T10:21:07;19.52;;;8.32;;
5827;SDS011;42583;50.240;8.444;2024-03-22T10:36:09;14.88;;;8.38;;
5827;SDS011;42583;50.240;8.444;2024-03-22T10:51:10;11.52;;;6.30;;
5827;SDS011;42583;50.240;8.444;2024-03-22T11:06:13;14.27;;;6.30;;
5827;SDS011;42583;50.240;8.444;2024-03-22T11:21:14;17.52;;;6.38;;
5827;SDS011;42583;50.240;8.444;2024-03-22T11:36:15;14.40;;;6.45;;
5827;SDS011;42583;50.240;8.444;2024-03-22T11:51:15;10.98;;;5.70;;
5827;SDS011;42583;50.240;8.444;2024-03-22T12:06:16;12.43;;;6.63;;
5827;SDS011;42583;50.240;8.444;2024-03-22T12:21:17;14.07;;;6.72;;
5827;SDS011;42583;50.240;8.444;2024-03-22T12:36:19;14.50;;;7.07;;
5827;SDS011;42583;50.240;8.444;2024-03-22T12:51:20;17.00;;;7.70;;
5827;SDS011;42583;50.240;8.444;2024-03-22T13:06:20;14.98;;;7.97;;
5827;SDS011;42583;50.240;8.444;2024-03-22T13:21:21;13.82;;;6.65;;
5827;SDS011;42583;50.240;8.444;2024-03-22T13:36:22;11.85;;;5.30;;
5827;SDS011;42583;50.240;8.444;2024-03-22T13:51:23;12.50;;;6.88;;
5827;SDS011;42583;50.240;8.444;2024-03-22T14:06:27;15.13;;;7.23;;
5827;SDS011;42583;50.240;8.444;2024-03-22T14:21:28;14.48;;;7.10;;
5827;SDS011;42583;50.240;8.444;2024-03-22T14:36:29;14.60;;;7.63;;
5827;SDS011;42583;50.240;8.444;2024-03-22T14:51:29;15.73;;;9.02;;
5827;SDS011;42583;50.240;8.444;2024-03-22T15:06:30;18.92;;;9.23;;
5827;SDS011;42583;50.240;8.444;2024-03-22T15:21:30;14.88;;;8.35;;
5827;SDS011;42583;50.240;8.444;2024-03-22T15:36:31;14.82;;;7.60;;
5827;SDS011;42583;50.240;8.444;2024-03-22T15:51:32;13.27;;;6.78;;
5827;SDS011;42583;50.240;8.444;2024-03-22T16:06:32;15.80;;;5.57;;
5827;SDS011;42583;50.240;8.444;2024-03-22T16:21:33;11.27;;;5.65;;
5827;SDS011;42583;50.240;8.444;2024-03-22T16:36:34;13.38;;;6.32;;
5827;SDS011;42583;50.240;8.444;2024-03-22T16:51:34;12.48;;;7.25;;
5827;SDS011;42583;50.240;8.444;2024-03-22T17:06:35;17.83;;;8.38;;
5827;SDS011;42583;50.240;8.444;2024-03-22T17:21:35;16.65;;;8.93;;
5827;SDS011;42583;50.240;8.444;2024-03-22T17:36:36;18.35;;;9.40;;
5827;SDS011;42583;50.240;8.444;2024-03-22T17:51:37;20.83;;;9.63;;
5827;SDS011;42583;50.240;8.444;2024-03-22T18:06:37;17.38;;;8.85;;
5827;SDS011;42583;50.240;8.444;2024-03-22T18:21:38;14.23;;;8.50;;
5827;SDS011;42583;50.240;8.444;2024-03-22T18:36:41;20.05;;;8.15;;
5827;SDS011;42583;50.240;8.444;2024-03-22T18:51:42;16.98;;;7.18;;
5827;SDS011;42583;50.240;8.444;2024-03-22T19:06:43;16.83;;;7.68;;
5827;SDS011;42583;50.240;8.444;2024-03-22T19:21:44;15.50;;;7.88;;
5827;SDS011;42583;50.240;8.444;2024-03-22T19:36:44;19.05;;;8.13;;
5827;SDS011;42583;50.240;8.444;2024-03-22T19:51:45;13.32;;;6.30;;
5827;SDS011;42583;50.240;8.444;2024-03-22T20:06:46;12.98;;;5.45;;
5827;SDS011;42583;50.240;8.444;2024-03-22T20:21:46;15.65;;;7.30;;
5827;SDS011;42583;50.240;8.444;2024-03-22T20:36:47;11.05;;;5.50;;
